Time;durP1;ratioP1;P1;durP2;ratioP2;P2;SDS_P1;SDS_P2;PMS_P1;PMS_P2;Temp;Humidity;BMP_temperature;BMP_pressure;BME280_temperature;BME280_humidity;BME280_pressure;Samples;Min_cycle;Max_cycle;Signal;HPM_P1;HPM_P2
2022/02/09 00:02:30;;;;;;;4.70;1.98;;;7.70;87.50;;;;;;4983019;28;20042;-70
2022/02/09 00:05:15;;;;;;;3.78;1.90;;;7.70;87.50;;;;;;4988098;28;20038;-72
2022/02/09 00:07:59;;;;;;;4.72;1.55;;;7.70;87.50;;;;;;4989896;28;20050;-69
2022/02/09 00:10:28;;;;;;;4.30;2.05;;;7.70;87.50;;;;;;4988677;28;20057;-71
2022/02/09 00:13:09;;;;;;;3.63;1.48;;;7.70;87.50;;;;;;4984464;28;20604;-71
2022/02/09 00:15:42;;;;;;;3.25;1.63;;;7.70;87.50;;;;;;4988506;28;20085;-72
2022/02/09 00:18:20;;;;;;;4.15;2.00;;;7.70;87.50;;;;;;4984395;28;20046;-71
2022/02/09 00:21:23;;;;;;;4.88;2.05;;;7.70;87.50;;;;;;4985048;28;20060;-72
2022/02/09 00:24:16;;;;;;;3.00;1.48;;;7.70;87.40;;;;;;4986582;28;20044;-71
2022/02/09 00:27:13;;;;;;;3.80;1.70;;;7.70;87.50;;;;;;4985118;28;20052;-71
2022/02/09 00:30:08;;;;;;;4.18;2.08;;;7.70;87.40;;;;;;4970814;28;20614;-69
2022/02/09 00:38:35;;;;;;;4.03;1.63;;;7.70;87.50;;;;;;4986048;28;20077;-70
2022/02/09 00:41:25;;;;;;;3.80;2.10;;;7.70;87.30;;;;;;4986111;28;20045;-71
2022/02/09 00:44:14;;;;;;;4.75;1.67;;;7.70;87.30;;;;;;4982817;28;20064;-70
2022/02/09 01:39:46;;;;;;;4.18;1.85;;;7.70;87.30;;;;;;4989203;28;21552;-72
2022/02/09 01:56:02;;;;;;;3.70;1.63;;;7.70;87.20;;;;;;4993308;28;20116;-71
2022/02/09 01:58:33;;;;;;;4.57;2.10;;;7.70;87.20;;;;;;4993850;28;20098;-71
2022/02/09 02:01:00;;;;;;;4.00;1.67;;;7.70;87.20;;;;;;4971971;28;20289;-71
2022/02/09 02:03:30;;;;;;;2.97;1.60;;;7.70;87.20;;;;;;4991284;28;20177;-70
2022/02/09 02:05:57;;;;;;;3.55;1.77;;;7.70;87.20;;;;;;4995194;28;20046;-69
2022/02/09 02:08:24;;;;;;;3.92;1.88;;;7.70;87.20;;;;;;4993228;28;23581;-71
2022/02/09 02:11:01;;;;;;;4.80;1.73;;;7.70;87.20;;;;;;4987729;28;20046;-71
2022/02/09 02:13:58;;;;;;;3.97;1.73;;;7.70;87.20;;;;;;4985584;28;20507;-71
2022/02/09 02:16:30;;;;;;;3.60;1.73;;;7.70;87.20;;;;;;4984883;28;20492;-71
2022/02/09 02:19:01;;;;;;;3.60;1.73;;;7.70;87.20;;;;;;4993116;28;20046;-72
2022/02/09 02:21:49;;;;;;;3.78;2.10;;;7.70;87.10;;;;;;4995686;28;20064;-70
2022/02/09 02:32:54;;;;;;;4.05;1.77;;;7.70;87.10;;;;;;5009173;28;20061;-71
2022/02/09 02:38:43;;;;;;;2.30;1.20;;;7.70;87.10;;;;;;5028733;28;20580;-69
2022/02/09 02:47:19;;;;;;;3.00;1.55;;;7.70;87.10;;;;;;4987501;28;20471;-71
2022/02/09 03:09:18;;;;;;;4.28;1.85;;;7.70;86.90;;;;;;4987678;28;20128;-70
2022/02/09 03:12:02;;;;;;;3.95;1.52;;;7.70;86.90;;;;;;4997368;28;20364;-71
2022/02/09 03:14:35;;;;;;;4.20;1.80;;;7.70;86.90;;;;;;4988555;28;20038;-71
2022/02/09 03:17:06;;;;;;;3.13;1.70;;;7.70;86.80;;;;;;4982229;28;20080;-71
2022/02/09 03:19:57;;;;;;;4.60;2.00;;;7.70;86.80;;;;;;4987951;28;20093;-71
2022/02/09 03:22:31;;;;;;;2.97;1.45;;;7.70;86.80;;;;;;4983720;28;20760;-71
2022/02/09 03:31:11;;;;;;;5.10;1.85;;;7.70;86.70;;;;;;4953757;28;20058;-71
2022/02/09 03:48:03;;;;;;;4.75;1.88;;;7.70;86.60;;;;;;4908950;29;20452;-73
2022/02/09 03:50:46;;;;;;;3.88;1.60;;;7.70;86.50;;;;;;4958246;28;20124;-71
2022/02/09 03:53:24;;;;;;;3.60;1.70;;;7.70;86.50;;;;;;4984541;28;20072;-72
2022/02/09 03:56:23;;;;;;;4.32;1.95;;;7.70;86.50;;;;;;4990689;28;20034;-70
2022/02/09 03:58:50;;;;;;;4.10;1.30;;;7.70;86.50;;;;;;4989203;28;20046;-72
2022/02/09 04:01:20;;;;;;;3.30;1.80;;;7.70;86.40;;;;;;4987220;28;20046;-71
2022/02/09 04:03:47;;;;;;;3.17;1.67;;;7.70;86.40;;;;;;4990564;28;20431;-72
2022/02/09 04:06:14;;;;;;;5.78;2.05;;;7.70;86.40;;;;;;4995614;28;20050;-72
2022/02/09 04:08:47;;;;;;;3.30;1.45;;;7.70;86.30;;;;;;4983915;28;20043;-70
2022/02/09 04:11:20;;;;;;;2.85;1.25;;;7.70;86.30;;;;;;4986530;28;20054;-72
2022/02/09 04:13:56;;;;;;;3.20;1.67;;;7.70;86.30;;;;;;4981386;28;20480;-71
2022/02/09 04:16:37;;;;;;;4.20;1.92;;;7.70;86.20;;;;;;4978588;28;20046;-71
2022/02/09 04:19:12;;;;;;;3.28;1.70;;;7.70;86.20;;;;;;4985086;28;20046;-71
2022/02/09 04:38:09;;;;;;;3.38;1.70;;;7.70;86.00;;;;;;4984951;28;20047;-70
2022/02/09 04:43:37;;;;;;;3.33;1.42;;;7.70;86.00;;;;;;4984590;28;20139;-71
2022/02/09 04:46:25;;;;;;;4.10;1.75;;;7.70;86.00;;;;;;4986044;28;20043;-71
2022/02/09 04:49:09;;;;;;;4.05;1.25;;;7.70;86.00;;;;;;4987970;28;20381;-72
2022/02/09 04:51:47;;;;;;;4.32;1.88;;;7.70;86.00;;;;;;4985127;28;20045;-71
2022/02/09 04:54:25;;;;;;;4.03;1.52;;;7.70;86.00;;;;;;4982796;28;20097;-71
2022/02/09 04:56:56;;;;;;;3.85;1.88;;;7.70;85.90;;;;;;4985888;28;20046;-72
2022/02/09 04:59:30;;;;;;;3.35;1.60;;;7.70;86.00;;;;;;4988271;28;20132;-71
2022/02/09 05:17:42;;;;;;;4.05;1.70;;;7.70;85.90;;;;;;5126900;27;20604;-72
2022/02/09 05:22:36;;;;;;;3.20;1.75;;;7.70;85.70;;;;;;5107107;28;20044;-71
2022/02/09 05:25:26;;;;;;;3.75;1.65;;;7.70;85.80;;;;;;5109356;28;20062;-71
2022/02/09 05:28:02;;;;;;;3.20;1.40;;;7.70;85.70;;;;;;5112547;28;20368;-71
2022/02/09 05:30:29;;;;;;;3.95;1.48;;;7.70;85.70;;;;;;5111158;28;20096;-71
2022/02/09 05:32:56;;;;;;;4.22;1.90;;;7.70;85.70;;;;;;5112290;28;20048;-70
2022/02/09 05:35:23;;;;;;;3.50;1.77;;;7.70;85.70;;;;;;5107449;28;20039;-71
2022/02/09 05:37:53;;;;;;;4.30;1.70;;;7.70;85.60;;;;;;5108297;28;20044;-70
2022/02/09 05:40:20;;;;;;;3.63;1.55;;;7.70;85.60;;;;;;5109904;28;20504;-72
2022/02/09 05:42:47;;;;;;;5.15;1.92;;;7.70;85.60;;;;;;5080261;28;20040;-70
2022/02/09 05:45:15;;;;;;;4.05;1.65;;;7.70;85.50;;;;;;5085196;28;20037;-71
2022/02/09 05:50:32;;;;;;;3.17;1.63;;;7.70;85.50;;;;;;5063855;28;20036;-69
2022/02/09 05:53:10;;;;;;;3.70;1.45;;;7.70;85.50;;;;;;5083498;28;21155;-71
2022/02/09 05:55:46;;;;;;;2.75;1.60;;;7.70;85.50;;;;;;5067819;28;20647;-71
2022/02/09 05:58:32;;;;;;;4.15;1.73;;;7.70;85.40;;;;;;5088705;28;20042;-71
2022/02/09 06:00:59;;;;;;;3.97;1.88;;;7.70;85.40;;;;;;5078544;28;20046;-70
2022/02/09 06:03:30;;;;;;;4.05;1.65;;;7.70;85.40;;;;;;5086475;28;20048;-71
2022/02/09 06:05:57;;;;;;;2.95;1.35;;;7.70;85.40;;;;;;5085203;28;20043;-69
2022/02/09 06:08:26;;;;;;;3.92;1.67;;;7.70;85.40;;;;;;5080327;28;20036;-71
2022/02/09 06:11:07;;;;;;;5.35;1.73;;;7.70;85.30;;;;;;5063993;28;20389;-70
2022/02/09 06:21:57;;;;;;;3.97;2.10;;;7.70;85.30;;;;;;5068321;28;20048;-69
2022/02/09 06:24:26;;;;;;;4.18;1.60;;;7.70;85.30;;;;;;5076678;28;20041;-71
2022/02/09 06:26:53;;;;;;;2.70;1.58;;;7.70;85.30;;;;;;5068429;28;20048;-70
2022/02/09 06:29:20;;;;;;;3.58;1.73;;;7.70;85.30;;;;;;5073305;28;20471;-71
2022/02/09 06:31:48;;;;;;;4.35;2.00;;;7.70;85.30;;;;;;5076006;28;20051;-71
2022/02/09 06:34:18;;;;;;;4.07;1.92;;;7.70;85.30;;;;;;5072991;28;20033;-70
2022/02/09 06:36:50;;;;;;;4.85;1.83;;;7.70;85.20;;;;;;5070618;28;20083;-71
2022/02/09 06:39:19;;;;;;;3.95;2.13;;;7.70;85.30;;;;;;5067877;28;20040;-71
2022/02/09 06:41:48;;;;;;;4.38;2.00;;;7.70;85.30;;;;;;5066995;28;20057;-70
2022/02/09 06:44:15;;;;;;;5.53;1.98;;;7.70;85.30;;;;;;5063423;28;20123;-71
2022/02/09 06:46:42;;;;;;;4.40;1.98;;;7.70;85.20;;;;;;5052245;28;20072;-71
2022/02/09 06:49:09;;;;;;;4.15;1.90;;;7.70;85.20;;;;;;5066952;28;20106;-71
2022/02/09 06:51:38;;;;;;;4.03;1.80;;;7.70;85.20;;;;;;5070387;28;20040;-71
2022/02/09 06:54:12;;;;;;;7.43;2.22;;;7.70;85.20;;;;;;5077035;28;20054;-70
2022/02/09 06:56:55;;;;;;;3.92;2.05;;;7.70;85.20;;;;;;5077299;28;20064;-70
2022/02/09 06:59:29;;;;;;;5.15;2.78;;;7.70;85.20;;;;;;5074201;28;20052;-70
2022/02/09 07:01:59;;;;;;;5.32;2.22;;;7.70;85.20;;;;;;5069582;28;20097;-70
2022/02/09 07:04:27;;;;;;;6.15;2.42;;;7.70;85.20;;;;;;5072657;28;20043;-71
2022/02/09 07:06:55;;;;;;;4.35;1.98;;;7.70;85.10;;;;;;5075350;28;20809;-71
2022/02/09 07:09:23;;;;;;;3.92;1.95;;;7.70;85.10;;;;;;5067164;28;20930;-72
2022/02/09 07:11:50;;;;;;;4.78;2.25;;;7.70;85.20;;;;;;5055649;28;20087;-70
2022/02/09 07:14:21;;;;;;;3.60;1.65;;;7.70;85.20;;;;;;5058736;28;20257;-71
2022/02/09 07:16:50;;;;;;;4.38;2.13;;;7.70;85.20;;;;;;5066484;28;20048;-71
2022/02/09 07:19:17;;;;;;;5.18;2.10;;;7.70;85.10;;;;;;5055136;28;20382;-71
2022/02/09 07:21:44;;;;;;;4.50;1.98;;;7.70;85.10;;;;;;5052952;28;20406;-70
2022/02/09 07:24:14;;;;;;;4.35;2.00;;;7.70;85.10;;;;;;5053067;28;20051;-72
2022/02/09 07:26:49;;;;;;;4.97;2.08;;;7.70;85.10;;;;;;5056642;28;20093;-71
2022/02/09 07:29:17;;;;;;;4.18;1.85;;;7.70;85.10;;;;;;5056491;28;20110;-71
2022/02/09 07:31:46;;;;;;;5.05;2.35;;;7.70;85.10;;;;;;5064640;28;20035;-71
2022/02/09 07:34:15;;;;;;;5.95;2.25;;;7.70;85.10;;;;;;5075027;28;20040;-70
2022/02/09 07:36:45;;;;;;;5.32;2.03;;;7.80;85.10;;;;;;5071451;28;20508;-70
2022/02/09 07:39:13;;;;;;;4.55;1.77;;;7.80;85.00;;;;;;5059293;28;20457;-71
2022/02/09 07:41:44;;;;;;;4.25;2.05;;;7.80;85.10;;;;;;5069789;28;20055;-71
2022/02/09 07:44:29;;;;;;;4.53;2.25;;;7.80;85.10;;;;;;5067248;28;20041;-71
2022/02/09 07:47:09;;;;;;;4.95;2.17;;;7.80;85.00;;;;;;5071971;28;20043;-71
2022/02/09 07:49:53;;;;;;;4.30;2.08;;;7.80;85.00;;;;;;5065216;28;20048;-70
2022/02/09 07:52:24;;;;;;;3.47;1.85;;;7.80;85.00;;;;;;5053035;28;20049;-70
2022/02/09 07:54:54;;;;;;;4.75;2.00;;;7.80;85.00;;;;;;5071288;28;20407;-71
2022/02/09 07:57:21;;;;;;;4.95;2.17;;;7.80;84.90;;;;;;5073857;28;20166;-71
2022/02/09 07:59:48;;;;;;;4.47;2.17;;;7.90;85.00;;;;;;5069516;28;20254;-71
2022/02/09 08:02:15;;;;;;;5.97;2.45;;;7.90;84.90;;;;;;5069138;28;20043;-71
2022/02/09 08:04:44;;;;;;;7.03;2.42;;;7.90;84.90;;;;;;5076772;28;20692;-71
2022/02/09 08:07:11;;;;;;;3.47;1.70;;;7.90;84.90;;;;;;5074808;28;20040;-71
2022/02/09 08:09:41;;;;;;;4.25;2.17;;;7.90;84.80;;;;;;5071770;28;20129;-71
2022/02/09 08:12:32;;;;;;;7.25;2.63;;;7.90;84.80;;;;;;5068737;28;20048;-71
2022/02/09 08:21:00;;;;;;;2.70;1.13;;;8.00;84.60;;;;;;5053749;28;20075;-71
2022/02/09 08:29:26;;;;;;;4.40;2.20;;;8.00;84.50;;;;;;5115568;27;20598;-70
2022/02/09 08:34:38;;;;;;;4.45;1.95;;;8.10;84.50;;;;;;5105729;28;20045;-71
2022/02/09 08:37:06;;;;;;;5.22;2.08;;;8.10;84.50;;;;;;5111892;28;20071;-70
2022/02/09 08:39:34;;;;;;;4.43;1.67;;;8.10;84.30;;;;;;5111499;28;20131;-71
2022/02/09 08:42:01;;;;;;;3.75;1.38;;;8.10;84.30;;;;;;5110412;28;20047;-70
2022/02/09 08:44:29;;;;;;;4.25;2.13;;;8.10;84.30;;;;;;5100435;28;20122;-71
2022/02/09 08:46:56;;;;;;;4.57;1.70;;;8.10;84.30;;;;;;5100344;27;20043;-71
2022/02/09 08:49:26;;;;;;;5.30;2.10;;;8.10;84.20;;;;;;5097174;28;20048;-71
2022/02/09 08:51:53;;;;;;;4.25;1.85;;;8.20;84.20;;;;;;5102633;28;20073;-71
2022/02/09 08:54:20;;;;;;;4.65;1.95;;;8.20;84.00;;;;;;5100192;28;20121;-70
2022/02/09 08:56:47;;;;;;;3.42;1.88;;;8.20;84.10;;;;;;5094368;28;20077;-70
2022/02/09 08:59:14;;;;;;;5.30;2.58;;;8.20;84.00;;;;;;5099995;28;20036;-70
2022/02/09 09:01:46;;;;;;;3.47;1.52;;;8.20;83.90;;;;;;5105542;28;20043;-70
2022/02/09 09:04:19;;;;;;;4.53;1.98;;;8.20;83.90;;;;;;5101185;28;20035;-70
2022/02/09 09:06:53;;;;;;;4.80;2.05;;;8.20;83.90;;;;;;5104129;28;20514;-70
2022/02/09 09:09:42;;;;;;;3.65;1.70;;;8.30;83.80;;;;;;5101386;28;20050;-73
2022/02/09 09:16:00;;;;;;;4.38;1.88;;;8.30;83.70;;;;;;5086713;28;20428;-71
2022/02/09 10:02:49;;;;;;;4.50;1.65;;;8.70;83.10;;;;;;5072752;27;20354;-72
2022/02/09 10:31:06;;;;;;;3.83;1.73;;;9.00;82.90;;;;;;5102590;27;20039;-70
2022/02/09 10:33:35;;;;;;;4.70;2.22;;;9.00;82.90;;;;;;5108126;27;20043;-70
2022/02/09 10:36:12;;;;;;;4.70;1.87;;;9.10;83.00;;;;;;5099647;27;20180;-71
2022/02/09 10:38:42;;;;;;;4.07;2.00;;;9.10;82.80;;;;;;5102352;27;20096;-71
2022/02/09 10:41:14;;;;;;;4.43;1.58;;;9.10;82.90;;;;;;5101321;27;20043;-70
2022/02/09 10:43:43;;;;;;;3.13;1.55;;;9.10;82.90;;;;;;5106425;27;20096;-72
2022/02/09 10:46:16;;;;;;;4.55;1.65;;;9.10;82.90;;;;;;5106777;27;20038;-70
2022/02/09 10:48:52;;;;;;;3.90;1.73;;;9.10;82.80;;;;;;5113892;27;20069;-71
2022/02/09 10:51:26;;;;;;;5.72;1.80;;;9.20;82.80;;;;;;5112526;27;20055;-71
2022/02/09 10:54:08;;;;;;;5.80;2.30;;;9.20;82.80;;;;;;5102981;27;20076;-71
2022/02/09 10:56:38;;;;;;;4.28;1.77;;;9.10;82.80;;;;;;5101959;27;20042;-70
2022/02/09 10:59:08;;;;;;;4.22;1.88;;;9.20;82.80;;;;;;5105172;27;20044;-70
2022/02/09 11:01:36;;;;;;;6.25;2.35;;;9.20;82.70;;;;;;5101842;27;20035;-71
2022/02/09 11:04:05;;;;;;;5.03;1.67;;;9.20;82.60;;;;;;5101633;27;20044;-70
2022/02/09 11:06:33;;;;;;;5.05;1.90;;;9.20;82.70;;;;;;5100340;27;20043;-70
2022/02/09 11:09:03;;;;;;;3.85;1.75;;;9.20;82.70;;;;;;5108199;27;20056;-69
2022/02/09 11:11:30;;;;;;;4.07;2.00;;;9.20;82.70;;;;;;5102561;27;20043;-70
2022/02/09 11:14:00;;;;;;;4.72;1.77;;;9.20;82.70;;;;;;5114743;27;20055;-72
2022/02/09 11:16:30;;;;;;;4.07;1.80;;;9.20;82.60;;;;;;5109525;27;20060;-70
2022/02/09 11:18:59;;;;;;;3.75;1.65;;;9.20;82.60;;;;;;5096415;27;20219;-70
2022/02/09 11:21:29;;;;;;;4.20;2.08;;;9.30;82.70;;;;;;5106162;27;20251;-70
2022/02/09 11:23:58;;;;;;;5.57;1.63;;;9.30;82.50;;;;;;5101153;27;20043;-70
2022/02/09 11:26:31;;;;;;;5.35;1.75;;;9.40;82.40;;;;;;5095150;27;20042;-71
2022/02/09 11:29:24;;;;;;;4.10;1.73;;;9.40;82.40;;;;;;5099676;27;20500;-70
2022/02/09 11:32:16;;;;;;;8.25;1.63;;;9.40;82.40;;;;;;5108399;27;20040;-72
2022/02/09 11:35:11;;;;;;;5.82;1.60;;;9.40;82.40;;;;;;5115793;27;20038;-71
2022/02/09 11:37:52;;;;;;;4.10;1.65;;;9.40;82.30;;;;;;5110594;27;20040;-70
2022/02/09 11:40:33;;;;;;;4.70;1.15;;;9.40;82.20;;;;;;5104699;27;20039;-70
2022/02/09 11:43:38;;;;;;;5.75;1.60;;;9.50;82.10;;;;;;5110792;27;20070;-70
2022/02/09 11:49:32;;;;;;;3.15;1.40;;;9.50;82.00;;;;;;5068045;27;20054;-71
2022/02/09 11:55:07;;;;;;;2.90;1.40;;;9.60;81.70;;;;;;5089662;27;20063;-71
2022/02/09 12:00:58;;;;;;;3.80;1.33;;;9.70;81.60;;;;;;5066254;27;20476;-71
2022/02/09 12:10:16;;;;;;;3.08;1.58;;;9.70;81.30;;;;;;5074657;28;20502;-70
2022/02/09 12:12:46;;;;;;;2.58;1.27;;;9.80;81.30;;;;;;5091800;27;20044;-70
2022/02/09 12:18:58;;;;;;;2.55;1.10;;;9.90;81.30;;;;;;5094250;27;20036;-69
2022/02/09 12:21:39;;;;;;;3.80;1.40;;;9.90;81.20;;;;;;5096223;28;20046;-69
2022/02/09 12:24:24;;;;;;;3.70;1.60;;;9.90;81.10;;;;;;5095620;28;20039;-70
2022/02/09 12:27:00;;;;;;;3.28;1.60;;;9.90;80.80;;;;;;5091009;28;20173;-72
2022/02/09 12:29:35;;;;;;;5.18;1.63;;;9.90;80.70;;;;;;5072749;28;20488;-71
2022/02/09 12:32:19;;;;;;;7.78;1.52;;;10.00;80.70;;;;;;5093670;28;20039;-70
2022/02/09 12:34:55;;;;;;;5.25;2.10;;;10.00;80.70;;;;;;5092916;28;20043;-70
2022/02/09 12:37:23;;;;;;;3.47;1.67;;;10.00;80.50;;;;;;5112974;28;20530;-69
2022/02/09 12:39:51;;;;;;;4.13;1.92;;;10.10;80.30;;;;;;5111674;28;20067;-73
2022/02/09 12:42:19;;;;;;;4.65;2.53;;;10.10;80.30;;;;;;5110831;28;20613;-69
2022/02/09 12:45:02;;;;;;;3.33;1.50;;;10.10;80.30;;;;;;5102581;28;20043;-71
2022/02/09 12:47:30;;;;;;;5.10;1.85;;;10.10;80.20;;;;;;5091595;28;20058;-74
2022/02/09 12:49:59;;;;;;;5.05;2.35;;;10.10;80.10;;;;;;5091694;28;20101;-70
2022/02/09 12:52:28;;;;;;;3.53;1.50;;;10.10;80.10;;;;;;5088726;28;20101;-71
2022/02/09 12:55:12;;;;;;;7.57;2.47;;;10.10;80.00;;;;;;5092809;28;20040;-70
2022/02/09 12:57:42;;;;;;;5.30;2.15;;;10.10;80.00;;;;;;5093053;28;20039;-70
2022/02/09 13:00:22;;;;;;;3.42;1.83;;;10.10;79.90;;;;;;5086880;28;20044;-70
2022/02/09 13:02:49;;;;;;;3.38;1.90;;;10.10;79.90;;;;;;5090361;28;20101;-70
2022/02/09 13:05:18;;;;;;;4.75;2.00;;;10.10;80.00;;;;;;5092621;28;20042;-71
2022/02/09 13:07:56;;;;;;;4.13;1.98;;;10.10;80.10;;;;;;5084834;28;20049;-70
2022/02/09 13:10:28;;;;;;;6.05;2.10;;;10.00;80.10;;;;;;5069477;28;20044;-69
2022/02/09 13:12:59;;;;;;;4.20;1.95;;;10.00;80.00;;;;;;5091354;28;20044;-70
2022/02/09 13:15:33;;;;;;;4.47;2.00;;;10.10;80.00;;;;;;5095173;27;20089;-70
2022/02/09 13:18:27;;;;;;;4.35;1.35;;;10.00;80.00;;;;;;5099112;27;20047;-71
2022/02/09 14:17:15;;;;;;;7.88;3.75;;;10.10;80.40;;;;;;5094153;27;20587;-72
2022/02/09 14:53:19;;;;;;;7.65;2.15;;;10.20;80.20;;;;;;5093119;27;20078;-70
2022/02/09 14:55:58;;;;;;;4.25;1.58;;;10.20;80.10;;;;;;5095279;27;20042;-70
2022/02/09 14:58:27;;;;;;;4.45;1.63;;;10.20;80.20;;;;;;5092189;27;20047;-70
2022/02/09 15:01:02;;;;;;;4.53;1.63;;;10.20;80.20;;;;;;5090630;27;21137;-69
2022/02/09 15:09:21;;;;;;;5.68;1.98;;;10.20;80.30;;;;;;5095827;27;20093;-71
2022/02/09 15:11:56;;;;;;;;;;;10.20;80.40;;;;;;5094505;27;20539;-71
2022/02/09 15:14:30;;;;;;;4.55;1.30;;;10.10;80.40;;;;;;5092252;27;19928;-70
2022/02/09 15:17:18;;;;;;;2.85;1.13;;;10.20;80.50;;;;;;5094104;28;20051;-71
2022/02/09 15:20:09;;;;;;;5.35;1.50;;;10.10;80.50;;;;;;5094178;27;20066;-72
2022/02/09 15:22:35;;;;;;;7.43;1.52;;;10.20;80.60;;;;;;5092056;27;20059;-69
2022/02/09 15:25:09;;;;;;;6.10;1.50;;;10.10;80.60;;;;;;5078729;27;20743;-70
2022/02/09 15:27:36;;;;;;;5.70;2.17;;;10.10;80.70;;;;;;5092253;27;20063;-70
2022/02/09 15:30:04;;;;;;;5.28;1.80;;;10.10;80.70;;;;;;5092686;27;20048;-71
2022/02/09 15:32:36;;;;;;;4.88;2.45;;;10.10;80.80;;;;;;5093450;27;20039;-71
2022/02/09 15:35:10;;;;;;;8.88;3.20;;;10.10;80.80;;;;;;5094280;27;20067;-70
2022/02/09 15:37:43;;;;;;;27.83;13.43;;;10.10;80.80;;;;;;5092551;27;20051;-69
2022/02/09 15:40:23;;;;;;;32.03;17.73;;;10.10;80.70;;;;;;5093770;27;20051;-71
2022/02/09 15:43:13;;;;;;;25.30;14.25;;;10.10;80.80;;;;;;5091392;27;20068;-70
2022/02/09 15:56:56;;;;;;;16.05;9.68;;;10.10;81.00;;;;;;5094297;27;21064;-69
2022/02/09 15:59:39;;;;;;;17.20;8.23;;;10.00;81.00;;;;;;5091332;27;20505;-69
2022/02/09 16:10:38;;;;;;;17.73;7.40;;;10.00;81.20;;;;;;5087397;28;20048;-70
2022/02/09 16:24:07;;;;;;;11.05;4.70;;;9.90;81.60;;;;;;5091447;28;20140;-72
2022/02/09 16:46:10;;;;;;;9.07;3.88;;;9.70;81.90;;;;;;5091423;28;20036;-71
2022/02/09 16:48:43;;;;;;;9.15;3.53;;;9.60;81.90;;;;;;5091262;28;20587;-70
2022/02/09 16:51:15;;;;;;;19.63;9.35;;;9.60;82.00;;;;;;5096263;27;20088;-70
2022/02/09 16:53:54;;;;;;;21.85;10.00;;;9.50;82.10;;;;;;5097367;27;20036;-71
2022/02/09 16:56:28;;;;;;;24.70;10.90;;;9.50;82.20;;;;;;5094770;27;20847;-71
2022/02/09 17:15:43;;;;;;;12.60;6.00;;;9.30;82.90;;;;;;5096173;27;20143;-71
2022/02/09 17:20:55;;;;;;;9.75;4.32;;;9.30;83.10;;;;;;5097301;27;20137;-71
2022/02/09 17:23:22;;;;;;;9.38;4.40;;;9.30;83.20;;;;;;5093412;27;20044;-73
2022/02/09 17:25:50;;;;;;;8.13;4.40;;;9.30;83.20;;;;;;5091731;27;20100;-71
2022/02/09 17:28:18;;;;;;;8.90;3.33;;;9.30;83.20;;;;;;5093824;27;20047;-70
2022/02/09 17:36:19;;;;;;;6.57;3.60;;;9.20;83.20;;;;;;5089965;27;20063;-72
2022/02/09 17:38:52;;;;;;;6.55;2.78;;;9.20;83.30;;;;;;5094292;27;20571;-72
2022/02/09 17:57:52;;;;;;;7.13;2.63;;;9.20;83.50;;;;;;5081680;27;20059;-70
2022/02/09 18:00:19;;;;;;;9.20;3.70;;;9.10;83.50;;;;;;5089153;27;20047;-71
2022/02/09 18:02:47;;;;;;;8.45;3.65;;;9.10;83.50;;;;;;5094997;27;20051;-70
2022/02/09 18:05:21;;;;;;;7.20;3.35;;;9.10;83.60;;;;;;5094482;27;20040;-70
2022/02/09 18:07:52;;;;;;;7.47;3.50;;;9.10;83.60;;;;;;5092171;27;20047;-69
2022/02/09 18:10:27;;;;;;;9.57;4.05;;;9.10;83.60;;;;;;5077196;28;20048;-69
2022/02/09 18:13:20;;;;;;;9.27;4.55;;;9.10;83.70;;;;;;5096639;27;20473;-70
2022/02/09 18:16:08;;;;;;;11.23;5.22;;;9.00;83.70;;;;;;5094716;27;20048;-69
2022/02/09 18:27:39;;;;;;;12.82;5.40;;;9.00;83.80;;;;;;5093257;27;20469;-71
2022/02/09 18:30:00;;;;;;;9.10;5.03;;;9.00;83.90;;;;;;5093203;27;20044;-71
2022/02/09 18:32:56;;;;;;;15.98;5.53;;;9.00;83.80;;;;;;5095138;27;20051;-70
2022/02/09 18:43:37;;;;;;;18.80;8.45;;;8.90;83.80;;;;;;5089838;27;20051;-72
2022/02/09 18:46:13;;;;;;;26.02;9.23;;;8.90;83.80;;;;;;5086662;27;20638;-70
2022/02/09 18:56:59;;;;;;;12.88;5.65;;;8.70;83.70;;;;;;5091071;27;20087;-70
2022/02/09 18:59:47;;;;;;;12.15;5.95;;;8.70;83.80;;;;;;5092255;27;20058;-72
2022/02/09 19:02:40;;;;;;;11.13;4.90;;;8.70;83.80;;;;;;5091204;27;20054;-72
2022/02/09 19:05:19;;;;;;;15.05;6.63;;;8.70;83.80;;;;;;5093249;27;20044;-71
2022/02/09 19:16:41;;;;;;;18.25;7.38;;;8.60;84.20;;;;;;5088708;28;20043;-70
2022/02/09 19:27:54;;;;;;;25.95;10.43;;;8.60;84.20;;;;;;5087099;27;20086;-70
2022/02/09 19:30:36;;;;;;;21.35;8.45;;;8.60;84.20;;;;;;5090226;27;20048;-69
2022/02/09 19:47:05;;;;;;;8.43;3.55;;;8.40;83.80;;;;;;5087554;27;20039;-69
2022/02/09 19:49:45;;;;;;;9.20;3.83;;;8.40;83.80;;;;;;5086917;27;20039;-73
2022/02/09 19:52:19;;;;;;;9.77;3.45;;;8.20;83.60;;;;;;5088685;27;20051;-71
2022/02/09 19:55:03;;;;;;;4.80;2.47;;;8.20;83.60;;;;;;5085868;27;20070;-71
2022/02/09 19:57:34;;;;;;;6.35;2.53;;;8.10;83.50;;;;;;5088837;27;20134;-70
2022/02/09 20:00:01;;;;;;;5.50;2.63;;;8.10;83.50;;;;;;5092276;27;20056;-71
2022/02/09 20:02:35;;;;;;;6.35;2.22;;;8.00;83.30;;;;;;5088412;27;20138;-71
2022/02/09 20:05:03;;;;;;;6.55;2.97;;;8.00;83.30;;;;;;5089398;27;20048;-72
2022/02/09 20:07:31;;;;;;;4.80;2.35;;;7.90;83.30;;;;;;5084529;28;20039;-71
2022/02/09 20:09:58;;;;;;;6.20;2.40;;;7.90;83.20;;;;;;5091405;27;20174;-70
2022/02/09 20:12:25;;;;;;;5.18;1.98;;;7.90;83.20;;;;;;5088177;27;20093;-72
2022/02/09 20:14:52;;;;;;;2.85;1.88;;;7.80;83.10;;;;;;5092046;27;20073;-72
2022/02/09 20:17:19;;;;;;;3.67;1.83;;;7.70;83.10;;;;;;5092455;27;20060;-71
2022/02/09 20:19:54;;;;;;;7.45;2.33;;;7.70;83.10;;;;;;5092166;27;20185;-73
2022/02/09 20:22:21;;;;;;;4.68;2.13;;;7.70;83.00;;;;;;5089784;27;20046;-70
2022/02/09 20:24:50;;;;;;;4.00;1.75;;;7.60;82.90;;;;;;5092148;27;20137;-71
2022/02/09 20:27:20;;;;;;;6.88;2.50;;;7.60;82.90;;;;;;5091568;28;20159;-70
2022/02/09 20:29:48;;;;;;;7.25;2.75;;;7.60;82.90;;;;;;5092753;28;20036;-70
2022/02/09 20:32:20;;;;;;;6.35;2.78;;;7.50;82.90;;;;;;5092139;28;20052;-70
2022/02/09 20:34:52;;;;;;;8.77;2.97;;;7.40;82.90;;;;;;5095254;28;20039;-71
2022/02/09 20:37:20;;;;;;;6.75;2.70;;;7.40;82.90;;;;;;5092127;28;20042;-73
2022/02/09 20:39:59;;;;;;;9.07;3.92;;;7.40;83.00;;;;;;5074282;28;20451;-71
2022/02/09 20:42:26;;;;;;;12.10;3.67;;;7.40;82.90;;;;;;5091373;28;20047;-69
2022/02/09 20:44:58;;;;;;;8.80;3.03;;;7.30;82.90;;;;;;5091286;28;20043;-70
2022/02/09 20:47:27;;;;;;;9.27;3.15;;;7.30;82.80;;;;;;5088235;28;20044;-70
2022/02/09 20:49:54;;;;;;;7.82;3.53;;;7.30;82.70;;;;;;5087799;28;20043;-71
2022/02/09 20:52:21;;;;;;;7.88;2.95;;;7.20;82.70;;;;;;5090144;28;20055;-71
2022/02/09 20:54:49;;;;;;;9.15;3.70;;;7.20;82.70;;;;;;5089624;28;20123;-71
2022/02/09 20:57:16;;;;;;;7.80;2.65;;;7.10;82.50;;;;;;5088973;28;20536;-72
2022/02/09 20:59:51;;;;;;;8.52;3.13;;;7.10;82.50;;;;;;5088730;28;20224;-71
2022/02/09 21:02:33;;;;;;;6.53;3.20;;;7.10;82.50;;;;;;5084021;28;20051;-70
2022/02/09 21:05:20;;;;;;;10.18;3.63;;;7.00;82.40;;;;;;5090056;28;20091;-72
2022/02/09 21:07:56;;;;;;;6.32;2.80;;;7.00;82.50;;;;;;5090335;28;20140;-71
2022/02/09 21:10:37;;;;;;;6.00;2.95;;;7.00;82.30;;;;;;5090248;28;20046;-72
2022/02/09 21:13:10;;;;;;;8.52;3.55;;;6.90;82.40;;;;;;5091941;28;20046;-72
2022/02/09 21:15:49;;;;;;;7.25;2.60;;;6.90;82.40;;;;;;5090488;28;20047;-71
2022/02/09 21:18:41;;;;;;;7.35;3.22;;;6.80;82.30;;;;;;5091308;28;20044;-71
2022/02/09 21:21:50;;;;;;;8.25;3.97;;;6.80;82.30;;;;;;5090234;28;20047;-70
2022/02/09 21:27:42;;;;;;;7.45;3.05;;;6.70;82.20;;;;;;5045424;28;20138;-70
2022/02/09 21:52:27;;;;;;;7.22;2.38;;;6.40;81.90;;;;;;5082470;27;21052;-69
2022/02/09 21:54:57;;;;;;;5.35;2.47;;;6.40;81.80;;;;;;5071711;27;20043;-71
2022/02/09 21:57:35;;;;;;;5.93;2.55;;;6.40;81.80;;;;;;5088311;27;20063;-70
2022/02/09 22:00:27;;;;;;;8.07;3.20;;;6.30;81.80;;;;;;5088345;27;20157;-69
2022/02/09 22:16:48;;;;;;;6.53;2.53;;;6.10;81.80;;;;;;5085268;27;20122;-70
2022/02/09 22:19:32;;;;;;;5.15;2.20;;;6.10;81.80;;;;;;5082546;27;20039;-71
2022/02/09 22:22:28;;;;;;;6.35;2.15;;;6.10;81.80;;;;;;5086797;27;20047;-69
2022/02/09 22:27:40;;;;;;;6.47;2.17;;;6.00;81.80;;;;;;5040893;27;20093;-70
2022/02/09 22:49:31;;;;;;;5.15;2.50;;;6.00;82.60;;;;;;5067386;27;20062;-70
2022/02/09 22:54:49;;;;;;;6.70;2.75;;;5.90;82.60;;;;;;5013999;28;20080;-70
2022/02/09 22:57:17;;;;;;;6.63;3.40;;;6.00;82.70;;;;;;5072057;27;20047;-70
2022/02/09 22:59:48;;;;;;;8.40;4.22;;;6.00;82.80;;;;;;5089351;27;20120;-69
2022/02/09 23:02:24;;;;;;;7.80;3.85;;;6.00;82.80;;;;;;5087636;27;20054;-70
2022/02/09 23:05:14;;;;;;;11.43;4.30;;;6.00;82.80;;;;;;5092359;27;20090;-71
2022/02/09 23:07:53;;;;;;;8.07;4.18;;;5.90;82.90;;;;;;5089941;27;20052;-69
2022/02/09 23:10:28;;;;;;;8.80;4.00;;;5.90;82.90;;;;;;5089124;27;20042;-70
2022/02/09 23:13:00;;;;;;;7.45;4.45;;;6.00;83.00;;;;;;5090864;27;20050;-71
2022/02/09 23:15:37;;;;;;;9.50;5.53;;;6.00;83.10;;;;;;5090355;27;20052;-72
2022/02/09 23:21:21;;;;;;;9.88;4.30;;;6.00;83.30;;;;;;5088439;27;20046;-71
2022/02/09 23:24:04;;;;;;;7.78;3.45;;;6.00;83.30;;;;;;5089476;27;20148;-70
2022/02/09 23:54:26;;;;;;;11.85;3.85;;;6.00;84.50;;;;;;5093268;27;20043;-71
